sensor_id;sensor_type;location;lat;lon;timestamp;temperature;humidity
74171;DHT22;62526;50.948;6.590;2023-12-22T00:01:24;8.00;99.90
74171;DHT22;62526;50.948;6.590;2023-12-22T00:03:51;8.00;99.90
74171;DHT22;62526;50.948;6.590;2023-12-22T00:06:18;8.00;99.90
74171;DHT22;62526;50.948;6.590;2023-12-22T00:08:46;8.00;99.90
74171;DHT22;62526;50.948;6.590;2023-12-22T00:11:12;8.20;99.90
74171;DHT22;62526;50.948;6.590;2023-12-22T00:13:39;8.20;99.90
74171;DHT22;62526;50.948;6.590;2023-12-22T00:16:06;8.30;99.90
74171;DHT22;62526;50.948;6.590;2023-12-22T00:18:33;8.30;99.90
74171;DHT22;62526;50.948;6.590;2023-12-22T00:21:00;8.20;99.90
74171;DHT22;62526;50.948;6.590;2023-12-22T00:23:27;8.20;99.90
74171;DHT22;62526;50.948;6.590;2023-12-22T00:25:53;8.10;99.90
74171;DHT22;62526;50.948;6.590;2023-12-22T00:28:21;8.00;99.90
74171;DHT22;62526;50.948;6.590;2023-12-22T00:30:48;8.10;99.90
74171;DHT22;62526;50.948;6.590;2023-12-22T00:33:16;8.40;99.90
74171;DHT22;62526;50.948;6.590;2023-12-22T00:35:43;8.40;99.90
74171;DHT22;62526;50.948;6.590;2023-12-22T00:38:10;8.50;99.90
74171;DHT22;62526;50.948;6.590;2023-12-22T00:40:38;8.50;99.90
74171;DHT22;62526;50.948;6.590;2023-12-22T00:43:04;8.40;99.90
74171;DHT22;62526;50.948;6.590;2023-12-22T00:45:31;8.50;99.90
74171;DHT22;62526;50.948;6.590;2023-12-22T00:47:59;8.60;99.90
74171;DHT22;62526;50.948;6.590;2023-12-22T00:50:26;8.70;99.90
74171;DHT22;62526;50.948;6.590;2023-12-22T00:52:53;8.80;99.90
74171;DHT22;62526;50.948;6.590;2023-12-22T00:55:19;8.80;99.90
74171;DHT22;62526;50.948;6.590;2023-12-22T00:57:47;8.90;99.90
74171;DHT22;62526;50.948;6.590;2023-12-22T01:00:14;8.90;99.90
74171;DHT22;62526;50.948;6.590;2023-12-22T01:02:42;9.00;99.90
74171;DHT22;62526;50.948;6.590;2023-12-22T01:05:08;9.00;99.90
74171;DHT22;62526;50.948;6.590;2023-12-22T01:07:36;9.00;99.90
74171;DHT22;62526;50.948;6.590;2023-12-22T01:10:02;9.00;99.90
74171;DHT22;62526;50.948;6.590;2023-12-22T01:12:30;9.00;99.90
74171;DHT22;62526;50.948;6.590;2023-12-22T01:14:56;9.10;99.90
74171;DHT22;62526;50.948;6.590;2023-12-22T01:17:23;9.10;99.90
74171;DHT22;62526;50.948;6.590;2023-12-22T01:19:50;9.20;99.90
74171;DHT22;62526;50.948;6.590;2023-12-22T01:22:17;9.20;99.90
74171;DHT22;62526;50.948;6.590;2023-12-22T01:24:45;9.30;99.90
74171;DHT22;62526;50.948;6.590;2023-12-22T01:27:11;9.30;99.90
74171;DHT22;62526;50.948;6.590;2023-12-22T01:29:38;9.40;99.90
74171;DHT22;62526;50.948;6.590;2023-12-22T01:32:06;9.30;99.90
74171;DHT22;62526;50.948;6.590;2023-12-22T01:34:33;9.30;99.90
74171;DHT22;62526;50.948;6.590;2023-12-22T01:37:00;9.30;99.90
74171;DHT22;62526;50.948;6.590;2023-12-22T01:39:27;9.30;99.90
74171;DHT22;62526;50.948;6.590;2023-12-22T01:41:54;9.30;99.90
74171;DHT22;62526;50.948;6.590;2023-12-22T01:44:21;9.40;99.90
74171;DHT22;62526;50.948;6.590;2023-12-22T01:46:49;9.40;99.90
74171;DHT22;62526;50.948;6.590;2023-12-22T01:49:15;9.30;99.90
74171;DHT22;62526;50.948;6.590;2023-12-22T01:51:43;9.30;99.90
74171;DHT22;62526;50.948;6.590;2023-12-22T01:54:10;9.30;99.90
74171;DHT22;62526;50.948;6.590;2023-12-22T01:56:37;9.40;99.90
74171;DHT22;62526;50.948;6.590;2023-12-22T01:59:05;9.30;99.90
74171;DHT22;62526;50.948;6.590;2023-12-22T02:01:32;9.30;99.90
74171;DHT22;62526;50.948;6.590;2023-12-22T02:03:59;9.20;99.90
74171;DHT22;62526;50.948;6.590;2023-12-22T02:06:26;10.60;99.90
74171;DHT22;62526;50.948;6.590;2023-12-22T02:08:53;9.20;99.90
74171;DHT22;62526;50.948;6.590;2023-12-22T02:11:20;9.20;99.90
74171;DHT22;62526;50.948;6.590;2023-12-22T02:13:47;9.20;99.90
74171;DHT22;62526;50.948;6.590;2023-12-22T02:16:22;9.20;99.90
74171;DHT22;62526;50.948;6.590;2023-12-22T02:18:48;9.30;99.90
74171;DHT22;62526;50.948;6.590;2023-12-22T02:21:15;9.40;99.90
74171;DHT22;62526;50.948;6.590;2023-12-22T02:23:42;9.50;99.90
74171;DHT22;62526;50.948;6.590;2023-12-22T02:26:22;9.60;99.90
74171;DHT22;62526;50.948;6.590;2023-12-22T02:28:47;9.60;99.90
74171;DHT22;62526;50.948;6.590;2023-12-22T02:31:17;9.60;99.90
74171;DHT22;62526;50.948;6.590;2023-12-22T02:33:44;9.50;99.90
74171;DHT22;62526;50.948;6.590;2023-12-22T02:36:11;9.30;99.90
74171;DHT22;62526;50.948;6.590;2023-12-22T02:38:38;9.10;99.90
74171;DHT22;62526;50.948;6.590;2023-12-22T02:41:05;8.80;99.90
74171;DHT22;62526;50.948;6.590;2023-12-22T02:43:32;8.80;99.90
74171;DHT22;62526;50.948;6.590;2023-12-22T02:46:00;8.70;99.90
74171;DHT22;62526;50.948;6.590;2023-12-22T02:48:27;8.70;99.90
74171;DHT22;62526;50.948;6.590;2023-12-22T02:50:54;8.60;99.90
74171;DHT22;62526;50.948;6.590;2023-12-22T02:53:22;8.70;99.90
74171;DHT22;62526;50.948;6.590;2023-12-22T02:55:49;8.70;99.90
74171;DHT22;62526;50.948;6.590;2023-12-22T02:58:15;8.70;99.90
74171;DHT22;62526;50.948;6.590;2023-12-22T03:00:43;8.60;99.90
74171;DHT22;62526;50.948;6.590;2023-12-22T03:03:09;8.90;99.90
74171;DHT22;62526;50.948;6.590;2023-12-22T03:05:36;9.20;99.90
74171;DHT22;62526;50.948;6.590;2023-12-22T03:08:03;9.20;99.90
74171;DHT22;62526;50.948;6.590;2023-12-22T03:10:30;9.40;99.90
74171;DHT22;62526;50.948;6.590;2023-12-22T03:12:58;9.40;99.90
74171;DHT22;62526;50.948;6.590;2023-12-22T03:15:24;9.40;99.90
74171;DHT22;62526;50.948;6.590;2023-12-22T03:17:52;9.50;99.90
74171;DHT22;62526;50.948;6.590;2023-12-22T03:20:18;9.60;99.90
74171;DHT22;62526;50.948;6.590;2023-12-22T03:22:45;9.70;99.90
74171;DHT22;62526;50.948;6.590;2023-12-22T03:25:12;9.80;99.90
74171;DHT22;62526;50.948;6.590;2023-12-22T03:27:39;9.80;99.90
74171;DHT22;62526;50.948;6.590;2023-12-22T03:30:07;9.80;99.90
74171;DHT22;62526;50.948;6.590;2023-12-22T03:32:35;9.20;99.90
74171;DHT22;62526;50.948;6.590;2023-12-22T03:35:02;9.20;99.90
74171;DHT22;62526;50.948;6.590;2023-12-22T03:37:30;8.70;99.90
74171;DHT22;62526;50.948;6.590;2023-12-22T03:39:56;8.80;99.90
74171;DHT22;62526;50.948;6.590;2023-12-22T03:42:24;8.60;99.90
74171;DHT22;62526;50.948;6.590;2023-12-22T03:44:51;8.70;99.90
74171;DHT22;62526;50.948;6.590;2023-12-22T03:47:18;8.50;99.90
74171;DHT22;62526;50.948;6.590;2023-12-22T03:49:46;8.40;99.90
74171;DHT22;62526;50.948;6.590;2023-12-22T03:52:13;8.40;99.90
74171;DHT22;62526;50.948;6.590;2023-12-22T03:54:40;8.40;99.90
74171;DHT22;62526;50.948;6.590;2023-12-22T03:57:07;8.40;99.90
74171;DHT22;62526;50.948;6.590;2023-12-22T03:59:34;8.30;99.90
74171;DHT22;62526;50.948;6.590;2023-12-22T04:02:01;8.40;99.90
74171;DHT22;62526;50.948;6.590;2023-12-22T04:04:29;8.60;99.90
74171;DHT22;62526;50.948;6.590;2023-12-22T04:06:56;8.70;99.90
74171;DHT22;62526;50.948;6.590;2023-12-22T04:09:24;8.90;99.90
74171;DHT22;62526;50.948;6.590;2023-12-22T04:11:50;8.60;99.90
74171;DHT22;62526;50.948;6.590;2023-12-22T04:14:18;8.10;99.90
74171;DHT22;62526;50.948;6.590;2023-12-22T04:16:45;8.50;99.90
74171;DHT22;62526;50.948;6.590;2023-12-22T04:19:12;8.50;99.90
74171;DHT22;62526;50.948;6.590;2023-12-22T04:21:39;8.20;99.90
74171;DHT22;62526;50.948;6.590;2023-12-22T04:24:06;8.10;99.90
74171;DHT22;62526;50.948;6.590;2023-12-22T04:26:33;7.60;99.90
74171;DHT22;62526;50.948;6.590;2023-12-22T04:29:00;7.50;99.90
74171;DHT22;62526;50.948;6.590;2023-12-22T04:31:27;7.30;99.90
74171;DHT22;62526;50.948;6.590;2023-12-22T04:33:54;7.40;99.90
74171;DHT22;62526;50.948;6.590;2023-12-22T04:36:21;7.60;99.90
74171;DHT22;62526;50.948;6.590;2023-12-22T04:38:48;7.70;99.90
74171;DHT22;62526;50.948;6.590;2023-12-22T04:41:15;7.70;99.90
74171;DHT22;62526;50.948;6.590;2023-12-22T04:43:42;7.80;99.90
74171;DHT22;62526;50.948;6.590;2023-12-22T04:46:09;8.00;99.90
74171;DHT22;62526;50.948;6.590;2023-12-22T04:48:36;7.90;99.90
74171;DHT22;62526;50.948;6.590;2023-12-22T04:51:08;8.10;99.90
74171;DHT22;62526;50.948;6.590;2023-12-22T04:53:37;8.00;99.90
74171;DHT22;62526;50.948;6.590;2023-12-22T04:56:05;8.30;99.90
74171;DHT22;62526;50.948;6.590;2023-12-22T04:58:32;8.50;99.90
74171;DHT22;62526;50.948;6.590;2023-12-22T05:00:59;8.50;99.90
74171;DHT22;62526;50.948;6.590;2023-12-22T05:03:25;8.50;99.90
74171;DHT22;62526;50.948;6.590;2023-12-22T05:05:52;8.40;99.90
74171;DHT22;62526;50.948;6.590;2023-12-22T05:08:19;8.10;99.90
74171;DHT22;62526;50.948;6.590;2023-12-22T05:10:46;8.30;99.90
74171;DHT22;62526;50.948;6.590;2023-12-22T05:13:12;8.70;99.90
74171;DHT22;62526;50.948;6.590;2023-12-22T05:15:40;8.70;99.90
74171;DHT22;62526;50.948;6.590;2023-12-22T05:18:06;8.60;99.90
74171;DHT22;62526;50.948;6.590;2023-12-22T05:20:33;8.80;99.90
74171;DHT22;62526;50.948;6.590;2023-12-22T05:23:00;8.60;99.90
74171;DHT22;62526;50.948;6.590;2023-12-22T05:25:28;8.80;99.90
74171;DHT22;62526;50.948;6.590;2023-12-22T05:27:55;9.30;99.90
74171;DHT22;62526;50.948;6.590;2023-12-22T05:30:21;9.40;99.90
74171;DHT22;62526;50.948;6.590;2023-12-22T05:32:49;9.40;99.90
74171;DHT22;62526;50.948;6.590;2023-12-22T05:35:16;9.50;99.90
74171;DHT22;62526;50.948;6.590;2023-12-22T05:37:43;9.50;99.90
74171;DHT22;62526;50.948;6.590;2023-12-22T05:40:10;9.70;99.90
74171;DHT22;62526;50.948;6.590;2023-12-22T05:42:37;9.90;99.90
74171;DHT22;62526;50.948;6.590;2023-12-22T05:45:05;10.10;99.90
74171;DHT22;62526;50.948;6.590;2023-12-22T05:47:32;10.50;99.90
74171;DHT22;62526;50.948;6.590;2023-12-22T05:49:59;10.60;99.90
74171;DHT22;62526;50.948;6.590;2023-12-22T05:52:26;10.70;99.90
74171;DHT22;62526;50.948;6.590;2023-12-22T05:54:52;10.70;99.90
74171;DHT22;62526;50.948;6.590;2023-12-22T05:57:19;10.70;99.90
74171;DHT22;62526;50.948;6.590;2023-12-22T05:59:46;10.80;99.90
74171;DHT22;62526;50.948;6.590;2023-12-22T06:02:12;10.70;99.90
74171;DHT22;62526;50.948;6.590;2023-12-22T06:04:40;10.80;99.90
74171;DHT22;62526;50.948;6.590;2023-12-22T06:07:06;10.70;99.90
74171;DHT22;62526;50.948;6.590;2023-12-22T06:09:32;11.50;99.90
74171;DHT22;62526;50.948;6.590;2023-12-22T06:11:59;10.50;99.90
74171;DHT22;62526;50.948;6.590;2023-12-22T06:14:26;10.00;99.90
74171;DHT22;62526;50.948;6.590;2023-12-22T06:16:52;10.00;99.90
74171;DHT22;62526;50.948;6.590;2023-12-22T06:19:19;9.90;99.90
74171;DHT22;62526;50.948;6.590;2023-12-22T06:21:47;11.60;99.90
74171;DHT22;62526;50.948;6.590;2023-12-22T06:24:14;10.20;99.90
74171;DHT22;62526;50.948;6.590;2023-12-22T06:26:40;10.30;99.90
74171;DHT22;62526;50.948;6.590;2023-12-22T06:29:07;10.40;99.90
74171;DHT22;62526;50.948;6.590;2023-12-22T06:31:34;10.20;99.90
74171;DHT22;62526;50.948;6.590;2023-12-22T06:34:01;9.90;99.90
74171;DHT22;62526;50.948;6.590;2023-12-22T06:36:27;10.10;99.90
74171;DHT22;62526;50.948;6.590;2023-12-22T06:38:54;10.50;99.90
74171;DHT22;62526;50.948;6.590;2023-12-22T06:41:25;10.70;99.90
74171;DHT22;62526;50.948;6.590;2023-12-22T06:43:51;10.90;99.90
74171;DHT22;62526;50.948;6.590;2023-12-22T06:46:19;11.10;99.90
74171;DHT22;62526;50.948;6.590;2023-12-22T06:48:45;11.10;99.90
74171;DHT22;62526;50.948;6.590;2023-12-22T06:51:18;11.00;99.90
74171;DHT22;62526;50.948;6.590;2023-12-22T06:53:44;10.90;99.90
74171;DHT22;62526;50.948;6.590;2023-12-22T06:56:21;10.70;99.90
74171;DHT22;62526;50.948;6.590;2023-12-22T06:58:50;10.40;99.90
74171;DHT22;62526;50.948;6.590;2023-12-22T07:01:18;10.40;99.90
74171;DHT22;62526;50.948;6.590;2023-12-22T07:03:44;10.50;99.90
74171;DHT22;62526;50.948;6.590;2023-12-22T07:06:11;10.60;99.90
74171;DHT22;62526;50.948;6.590;2023-12-22T07:08:38;10.60;99.90
74171;DHT22;62526;50.948;6.590;2023-12-22T07:11:04;10.90;99.90
74171;DHT22;62526;50.948;6.590;2023-12-22T07:13:31;11.00;99.90
74171;DHT22;62526;50.948;6.590;2023-12-22T07:15:58;11.10;99.90
74171;DHT22;62526;50.948;6.590;2023-12-22T07:18:24;10.50;99.90
74171;DHT22;62526;50.948;6.590;2023-12-22T07:20:51;10.00;99.90
74171;DHT22;62526;50.948;6.590;2023-12-22T07:23:18;9.70;99.90
74171;DHT22;62526;50.948;6.590;2023-12-22T07:25:44;9.90;99.90
74171;DHT22;62526;50.948;6.590;2023-12-22T07:28:12;10.00;99.90
74171;DHT22;62526;50.948;6.590;2023-12-22T07:30:38;10.00;99.90
74171;DHT22;62526;50.948;6.590;2023-12-22T07:33:05;10.00;99.90
74171;DHT22;62526;50.948;6.590;2023-12-22T07:35:31;9.90;99.90
74171;DHT22;62526;50.948;6.590;2023-12-22T07:37:58;9.90;99.90
74171;DHT22;62526;50.948;6.590;2023-12-22T07:40:25;10.10;99.90
74171;DHT22;62526;50.948;6.590;2023-12-22T07:42:52;10.00;99.90
74171;DHT22;62526;50.948;6.590;2023-12-22T07:45:19;10.00;99.90
74171;DHT22;62526;50.948;6.590;2023-12-22T07:47:45;9.90;99.90
74171;DHT22;62526;50.948;6.590;2023-12-22T07:50:12;9.90;99.90
74171;DHT22;62526;50.948;6.590;2023-12-22T07:52:39;9.60;99.90
74171;DHT22;62526;50.948;6.590;2023-12-22T07:55:07;9.60;99.90
74171;DHT22;62526;50.948;6.590;2023-12-22T07:57:34;9.50;99.90
74171;DHT22;62526;50.948;6.590;2023-12-22T08:00:01;9.80;99.90
74171;DHT22;62526;50.948;6.590;2023-12-22T08:02:28;9.70;99.90
74171;DHT22;62526;50.948;6.590;2023-12-22T08:04:55;9.70;99.90
74171;DHT22;62526;50.948;6.590;2023-12-22T08:07:26;9.30;99.90
74171;DHT22;62526;50.948;6.590;2023-12-22T08:09:52;9.40;99.90
74171;DHT22;62526;50.948;6.590;2023-12-22T08:12:19;9.50;99.90
74171;DHT22;62526;50.948;6.590;2023-12-22T08:14:45;9.30;99.90
74171;DHT22;62526;50.948;6.590;2023-12-22T08:17:12;9.30;99.90
74171;DHT22;62526;50.948;6.590;2023-12-22T08:19:39;9.30;99.90
74171;DHT22;62526;50.948;6.590;2023-12-22T08:22:05;9.30;99.90
74171;DHT22;62526;50.948;6.590;2023-12-22T08:24:32;9.40;99.90
74171;DHT22;62526;50.948;6.590;2023-12-22T08:27:04;9.50;99.90
74171;DHT22;62526;50.948;6.590;2023-12-22T08:29:34;9.50;99.90
74171;DHT22;62526;50.948;6.590;2023-12-22T08:32:00;9.50;99.90
74171;DHT22;62526;50.948;6.590;2023-12-22T08:34:27;9.70;99.90
74171;DHT22;62526;50.948;6.590;2023-12-22T08:36:54;9.70;99.90
74171;DHT22;62526;50.948;6.590;2023-12-22T08:39:20;9.80;99.90
74171;DHT22;62526;50.948;6.590;2023-12-22T08:41:47;9.80;99.90
74171;DHT22;62526;50.948;6.590;2023-12-22T08:44:13;9.60;99.90
74171;DHT22;62526;50.948;6.590;2023-12-22T08:46:41;9.50;99.90
74171;DHT22;62526;50.948;6.590;2023-12-22T08:49:07;9.60;99.90
74171;DHT22;62526;50.948;6.590;2023-12-22T08:51:35;9.60;99.90
74171;DHT22;62526;50.948;6.590;2023-12-22T08:54:02;9.50;99.90
74171;DHT22;62526;50.948;6.590;2023-12-22T08:56:30;9.70;99.90
74171;DHT22;62526;50.948;6.590;2023-12-22T08:58:57;9.80;99.90
74171;DHT22;62526;50.948;6.590;2023-12-22T09:01:23;9.70;99.90
74171;DHT22;62526;50.948;6.590;2023-12-22T09:03:50;9.90;99.90
74171;DHT22;62526;50.948;6.590;2023-12-22T09:06:17;10.00;99.90
74171;DHT22;62526;50.948;6.590;2023-12-22T09:08:44;10.10;99.90
74171;DHT22;62526;50.948;6.590;2023-12-22T09:11:12;10.10;99.90
74171;DHT22;62526;50.948;6.590;2023-12-22T09:13:38;10.10;99.90
74171;DHT22;62526;50.948;6.590;2023-12-22T09:16:05;9.90;99.90
74171;DHT22;62526;50.948;6.590;2023-12-22T09:18:31;10.00;99.90
74171;DHT22;62526;50.948;6.590;2023-12-22T09:20:58;10.10;99.90
74171;DHT22;62526;50.948;6.590;2023-12-22T09:23:25;10.10;99.90
74171;DHT22;62526;50.948;6.590;2023-12-22T09:25:51;10.00;99.90
74171;DHT22;62526;50.948;6.590;2023-12-22T09:28:19;10.10;99.90
74171;DHT22;62526;50.948;6.590;2023-12-22T09:30:46;10.10;99.90
74171;DHT22;62526;50.948;6.590;2023-12-22T09:33:12;10.10;99.90
74171;DHT22;62526;50.948;6.590;2023-12-22T09:35:39;10.30;99.90
74171;DHT22;62526;50.948;6.590;2023-12-22T09:38:05;10.20;99.90
74171;DHT22;62526;50.948;6.590;2023-12-22T09:40:32;10.00;99.90
74171;DHT22;62526;50.948;6.590;2023-12-22T09:43:00;10.00;99.90
74171;DHT22;62526;50.948;6.590;2023-12-22T09:45:26;9.90;99.90
74171;DHT22;62526;50.948;6.590;2023-12-22T09:47:53;10.00;99.90
74171;DHT22;62526;50.948;6.590;2023-12-22T09:50:19;10.10;99.90
74171;DHT22;62526;50.948;6.590;2023-12-22T09:52:46;10.10;99.90
74171;DHT22;62526;50.948;6.590;2023-12-22T09:55:13;10.10;99.90
74171;DHT22;62526;50.948;6.590;2023-12-22T09:57:39;10.20;99.90
74171;DHT22;62526;50.948;6.590;2023-12-22T10:00:09;10.20;99.90
74171;DHT22;62526;50.948;6.590;2023-12-22T10:02:36;11.90;99.90
74171;DHT22;62526;50.948;6.590;2023-12-22T10:05:03;10.00;99.90
74171;DHT22;62526;50.948;6.590;2023-12-22T10:07:30;10.00;99.90
74171;DHT22;62526;50.948;6.590;2023-12-22T10:09:57;10.00;99.90
74171;DHT22;62526;50.948;6.590;2023-12-22T10:12:24;10.00;99.90
74171;DHT22;62526;50.948;6.590;2023-12-22T10:14:51;9.90;99.90
74171;DHT22;62526;50.948;6.590;2023-12-22T10:17:17;10.00;99.90
74171;DHT22;62526;50.948;6.590;2023-12-22T10:19:44;10.00;99.90
74171;DHT22;62526;50.948;6.590;2023-12-22T10:22:10;10.10;99.90
74171;DHT22;62526;50.948;6.590;2023-12-22T10:24:40;10.30;99.90
74171;DHT22;62526;50.948;6.590;2023-12-22T10:27:09;10.50;99.90
74171;DHT22;62526;50.948;6.590;2023-12-22T10:29:35;10.40;99.90
74171;DHT22;62526;50.948;6.590;2023-12-22T10:32:03;10.30;99.90
74171;DHT22;62526;50.948;6.590;2023-12-22T10:34:30;10.20;99.90
74171;DHT22;62526;50.948;6.590;2023-12-22T10:36:58;10.20;99.90
74171;DHT22;62526;50.948;6.590;2023-12-22T10:39:26;10.30;99.90
74171;DHT22;62526;50.948;6.590;2023-12-22T10:41:50;10.00;99.90
74171;DHT22;62526;50.948;6.590;2023-12-22T10:44:17;10.20;99.90
74171;DHT22;62526;50.948;6.590;2023-12-22T10:46:43;10.40;99.90
74171;DHT22;62526;50.948;6.590;2023-12-22T10:49:10;10.50;99.90
74171;DHT22;62526;50.948;6.590;2023-12-22T10:51:37;10.50;99.90
74171;DHT22;62526;50.948;6.590;2023-12-22T10:54:04;10.50;99.90
74171;DHT22;62526;50.948;6.590;2023-12-22T10:56:30;10.30;99.90
74171;DHT22;62526;50.948;6.590;2023-12-22T10:58:57;10.30;99.90
74171;DHT22;62526;50.948;6.590;2023-12-22T11:01:24;10.30;99.90
74171;DHT22;62526;50.948;6.590;2023-12-22T11:03:51;10.20;99.90
74171;DHT22;62526;50.948;6.590;2023-12-22T11:06:17;10.30;99.90
74171;DHT22;62526;50.948;6.590;2023-12-22T11:08:44;10.30;99.90
74171;DHT22;62526;50.948;6.590;2023-12-22T11:11:17;10.30;99.90
74171;DHT22;62526;50.948;6.590;2023-12-22T11:13:43;10.40;99.90
74171;DHT22;62526;50.948;6.590;2023-12-22T11:16:09;10.70;99.90
74171;DHT22;62526;50.948;6.590;2023-12-22T11:18:36;10.70;99.90
74171;DHT22;62526;50.948;6.590;2023-12-22T11:21:03;10.90;99.90
74171;DHT22;62526;50.948;6.590;2023-12-22T11:23:30;10.90;99.90
74171;DHT22;62526;50.948;6.590;2023-12-22T11:25:57;11.40;99.90
74171;DHT22;62526;50.948;6.590;2023-12-22T11:28:24;11.40;99.90
74171;DHT22;62526;50.948;6.590;2023-12-22T11:30:53;10.30;99.90
74171;DHT22;62526;50.948;6.590;2023-12-22T11:33:20;11.00;99.90
74171;DHT22;62526;50.948;6.590;2023-12-22T11:35:46;11.00;99.90
74171;DHT22;62526;50.948;6.590;2023-12-22T11:38:13;11.20;99.90
74171;DHT22;62526;50.948;6.590;2023-12-22T11:40:40;11.40;99.90
74171;DHT22;62526;50.948;6.590;2023-12-22T11:43:07;11.60;99.90
74171;DHT22;62526;50.948;6.590;2023-12-22T11:45:33;11.70;99.90
74171;DHT22;62526;50.948;6.590;2023-12-22T11:48:08;11.60;99.90
74171;DHT22;62526;50.948;6.590;2023-12-22T11:50:34;11.50;99.90
74171;DHT22;62526;50.948;6.590;2023-12-22T11:56:05;11.60;99.90
74171;DHT22;62526;50.948;6.590;2023-12-22T11:58:41;11.60;99.90
74171;DHT22;62526;50.948;6.590;2023-12-22T12:01:09;11.70;99.90
74171;DHT22;62526;50.948;6.590;2023-12-22T12:03:40;11.60;99.90
74171;DHT22;62526;50.948;6.590;2023-12-22T12:06:14;11.50;99.90
74171;DHT22;62526;50.948;6.590;2023-12-22T12:08:40;11.20;99.90
74171;DHT22;62526;50.948;6.590;2023-12-22T12:11:08;11.50;99.90
74171;DHT22;62526;50.948;6.590;2023-12-22T12:13:34;11.50;99.90
74171;DHT22;62526;50.948;6.590;2023-12-22T12:16:01;11.70;99.90
74171;DHT22;62526;50.948;6.590;2023-12-22T12:18:30;11.60;99.90
74171;DHT22;62526;50.948;6.590;2023-12-22T12:20:56;11.70;99.90
74171;DHT22;62526;50.948;6.590;2023-12-22T12:23:24;11.70;99.90
74171;DHT22;62526;50.948;6.590;2023-12-22T12:25:50;11.70;99.90
74171;DHT22;62526;50.948;6.590;2023-12-22T12:28:17;11.40;99.90
74171;DHT22;62526;50.948;6.590;2023-12-22T12:30:44;11.60;99.90
74171;DHT22;62526;50.948;6.590;2023-12-22T12:33:11;11.70;99.90
74171;DHT22;62526;50.948;6.590;2023-12-22T12:35:38;11.80;99.90
74171;DHT22;62526;50.948;6.590;2023-12-22T12:38:05;11.50;99.90
74171;DHT22;62526;50.948;6.590;2023-12-22T12:40:32;11.60;99.90
74171;DHT22;62526;50.948;6.590;2023-12-22T12:42:59;11.50;99.90
74171;DHT22;62526;50.948;6.590;2023-12-22T12:45:26;11.50;99.90
74171;DHT22;62526;50.948;6.590;2023-12-22T12:47:59;11.60;99.90
74171;DHT22;62526;50.948;6.590;2023-12-22T12:50:26;11.60;99.90
74171;DHT22;62526;50.948;6.590;2023-12-22T12:52:52;11.40;99.90
74171;DHT22;62526;50.948;6.590;2023-12-22T12:55:22;11.20;99.90
74171;DHT22;62526;50.948;6.590;2023-12-22T12:57:50;11.60;99.90
74171;DHT22;62526;50.948;6.590;2023-12-22T13:00:32;11.80;99.90
74171;DHT22;62526;50.948;6.590;2023-12-22T13:03:01;11.90;99.90
74171;DHT22;62526;50.948;6.590;2023-12-22T13:05:27;12.00;99.90
74171;DHT22;62526;50.948;6.590;2023-12-22T13:08:05;12.10;99.90
74171;DHT22;62526;50.948;6.590;2023-12-22T13:10:21;11.70;99.90
74171;DHT22;62526;50.948;6.590;2023-12-22T13:12:47;11.60;99.90
74171;DHT22;62526;50.948;6.590;2023-12-22T13:15:14;11.70;99.90
74171;DHT22;62526;50.948;6.590;2023-12-22T13:17:41;11.60;99.90
74171;DHT22;62526;50.948;6.590;2023-12-22T13:20:09;12.10;99.90
74171;DHT22;62526;50.948;6.590;2023-12-22T13:22:36;12.10;99.90
74171;DHT22;62526;50.948;6.590;2023-12-22T13:25:03;12.10;99.90
74171;DHT22;62526;50.948;6.590;2023-12-22T13:27:30;12.20;99.90
74171;DHT22;62526;50.948;6.590;2023-12-22T13:29:57;12.30;99.90
74171;DHT22;62526;50.948;6.590;2023-12-22T13:32:24;12.30;99.90
74171;DHT22;62526;50.948;6.590;2023-12-22T13:34:52;14.70;99.90
74171;DHT22;62526;50.948;6.590;2023-12-22T13:37:18;12.20;99.90
74171;DHT22;62526;50.948;6.590;2023-12-22T13:39:45;12.30;99.90
74171;DHT22;62526;50.948;6.590;2023-12-22T13:42:16;12.30;99.90
74171;DHT22;62526;50.948;6.590;2023-12-22T13:44:43;12.30;99.90
74171;DHT22;62526;50.948;6.590;2023-12-22T13:47:10;11.90;99.90
74171;DHT22;62526;50.948;6.590;2023-12-22T13:49:36;11.70;99.90
74171;DHT22;62526;50.948;6.590;2023-12-22T13:52:03;11.70;99.90
74171;DHT22;62526;50.948;6.590;2023-12-22T13:54:32;11.90;99.90
74171;DHT22;62526;50.948;6.590;2023-12-22T13:56:58;12.00;99.90
74171;DHT22;62526;50.948;6.590;2023-12-22T13:59:31;12.00;99.90
74171;DHT22;62526;50.948;6.590;2023-12-22T14:01:58;12.00;99.90
74171;DHT22;62526;50.948;6.590;2023-12-22T14:04:24;11.00;99.90
74171;DHT22;62526;50.948;6.590;2023-12-22T14:06:51;11.90;99.90
74171;DHT22;62526;50.948;6.590;2023-12-22T14:09:18;11.90;99.90
74171;DHT22;62526;50.948;6.590;2023-12-22T14:11:45;12.00;99.90
74171;DHT22;62526;50.948;6.590;2023-12-22T14:14:11;11.90;99.90
74171;DHT22;62526;50.948;6.590;2023-12-22T14:16:38;11.80;99.90
74171;DHT22;62526;50.948;6.590;2023-12-22T14:19:05;11.80;99.90
74171;DHT22;62526;50.948;6.590;2023-12-22T14:21:31;11.80;99.90
74171;DHT22;62526;50.948;6.590;2023-12-22T14:23:58;11.80;99.90
74171;DHT22;62526;50.948;6.590;2023-12-22T14:26:25;11.80;99.90
74171;DHT22;62526;50.948;6.590;2023-12-22T14:28:52;11.90;99.90
74171;DHT22;62526;50.948;6.590;2023-12-22T14:31:18;11.90;99.90
74171;DHT22;62526;50.948;6.590;2023-12-22T14:33:46;11.80;99.90
74171;DHT22;62526;50.948;6.590;2023-12-22T14:36:13;11.80;99.90
74171;DHT22;62526;50.948;6.590;2023-12-22T14:38:40;11.80;99.90
74171;DHT22;62526;50.948;6.590;2023-12-22T14:41:06;11.80;99.90
74171;DHT22;62526;50.948;6.590;2023-12-22T14:43:33;11.80;99.90
74171;DHT22;62526;50.948;6.590;2023-12-22T14:46:00;11.60;99.90
74171;DHT22;62526;50.948;6.590;2023-12-22T14:48:27;11.70;99.90
74171;DHT22;62526;50.948;6.590;2023-12-22T14:50:54;11.90;99.90
74171;DHT22;62526;50.948;6.590;2023-12-22T14:53:20;11.60;99.90
74171;DHT22;62526;50.948;6.590;2023-12-22T14:55:47;11.80;99.90
74171;DHT22;62526;50.948;6.590;2023-12-22T14:58:13;11.80;99.90
74171;DHT22;62526;50.948;6.590;2023-12-22T15:00:40;12.00;99.90
74171;DHT22;62526;50.948;6.590;2023-12-22T15:03:07;12.10;99.90
74171;DHT22;62526;50.948;6.590;2023-12-22T15:05:34;12.10;99.90
74171;DHT22;62526;50.948;6.590;2023-12-22T15:08:01;12.00;99.90
74171;DHT22;62526;50.948;6.590;2023-12-22T15:10:27;12.00;99.90
74171;DHT22;62526;50.948;6.590;2023-12-22T15:12:54;11.90;99.90
74171;DHT22;62526;50.948;6.590;2023-12-22T15:15:20;11.70;99.90
74171;DHT22;62526;50.948;6.590;2023-12-22T15:17:48;11.70;99.90
74171;DHT22;62526;50.948;6.590;2023-12-22T15:20:14;11.60;99.90
74171;DHT22;62526;50.948;6.590;2023-12-22T15:22:41;11.70;99.90
74171;DHT22;62526;50.948;6.590;2023-12-22T15:25:08;11.90;99.90
74171;DHT22;62526;50.948;6.590;2023-12-22T15:27:34;11.60;99.90
74171;DHT22;62526;50.948;6.590;2023-12-22T15:30:01;11.60;99.90
74171;DHT22;62526;50.948;6.590;2023-12-22T15:32:28;11.30;99.90
74171;DHT22;62526;50.948;6.590;2023-12-22T15:34:54;11.30;99.90
74171;DHT22;62526;50.948;6.590;2023-12-22T15:37:21;11.50;99.90
74171;DHT22;62526;50.948;6.590;2023-12-22T15:39:47;11.70;99.90